createdAt,value
2023-07-24T00:01:36.023Z,48.90
2023-07-24T00:16:38.217Z,48.23
2023-07-24T00:31:40.043Z,48.17
2023-07-24T00:46:42.079Z,46.76
2023-07-24T01:01:44.161Z,46.34
2023-07-24T01:16:48.816Z,47.58
2023-07-24T01:31:50.693Z,47.74
2023-07-24T01:46:52.468Z,47.51
2023-07-24T02:01:54.430Z,48.14
2023-07-24T02:16:56.244Z,53.22
2023-07-24T02:31:58.756Z,50.47
2023-07-24T02:47:00.541Z,49.10
2023-07-24T03:02:02.403Z,49.06
2023-07-24T03:17:04.407Z,48.46
2023-07-24T03:32:06.427Z,48.19
2023-07-24T03:47:08.681Z,48.13
2023-07-24T04:02:10.931Z,53.42
2023-07-24T04:17:12.896Z,50.95
2023-07-24T04:32:14.810Z,48.99
2023-07-24T04:47:16.748Z,45.62
2023-07-24T05:02:18.718Z,44.90
2023-07-24T05:17:20.684Z,43.48
2023-07-24T05:32:22.642Z,41.13
2023-07-24T05:47:24.468Z,42.18
2023-07-24T06:02:26.356Z,41.46
2023-07-24T06:17:28.129Z,38.58
2023-07-24T06:32:30.008Z,38.00
2023-07-24T06:47:31.880Z,37.54
2023-07-24T07:02:33.647Z,36.79
2023-07-24T07:17:35.660Z,36.94
2023-07-24T07:32:37.936Z,37.28
2023-07-24T07:47:41.311Z,36.61
2023-07-24T08:02:43.178Z,36.97
2023-07-24T08:17:45.257Z,36.11
2023-07-24T08:32:47.127Z,36.46
2023-07-24T08:47:49.779Z,36.39
2023-07-24T09:02:51.738Z,34.98
2023-07-24T09:17:54.786Z,35.30
2023-07-24T09:32:56.982Z,34.69
2023-07-24T09:48:06.785Z,35.71
2023-07-24T10:03:11.006Z,33.74
2023-07-24T10:18:12.835Z,33.44
2023-07-24T10:33:20.221Z,32.13
2023-07-24T10:48:26.011Z,31.91
2023-07-24T11:03:29.030Z,31.15
2023-07-24T11:18:40.622Z,31.77
2023-07-24T11:33:54.469Z,31.35
2023-07-24T11:48:59.918Z,32.46
2023-07-24T12:04:02.131Z,30.60
2023-07-24T12:19:04.187Z,29.70
2023-07-24T12:34:06.021Z,30.01
2023-07-24T12:49:07.910Z,29.09
2023-07-24T13:04:10.420Z,29.18
2023-07-24T13:19:12.291Z,28.26
2023-07-24T13:34:14.039Z,23.16
2023-07-24T13:49:16.024Z,22.44
2023-07-24T14:04:18.047Z,24.69
2023-07-24T14:19:20.035Z,24.08
2023-07-24T14:34:21.880Z,24.26
2023-07-24T14:49:23.584Z,23.61
2023-07-24T15:04:25.445Z,24.84
2023-07-24T15:19:29.475Z,24.63
2023-07-24T15:34:31.858Z,23.83
2023-07-24T15:49:33.598Z,25.40
2023-07-24T16:04:36.796Z,25.02
2023-07-24T16:19:40.414Z,26.66
2023-07-24T16:34:45.181Z,27.29
2023-07-24T16:49:47.302Z,29.21
2023-07-24T17:04:50.476Z,30.58
2023-07-24T17:19:53.950Z,31.47
2023-07-24T17:34:58.321Z,34.38
2023-07-24T17:50:06.459Z,34.94
2023-07-24T18:05:09.796Z,34.53
2023-07-24T18:20:13.616Z,35.85
2023-07-24T18:35:15.941Z,36.85
2023-07-24T18:50:19.016Z,37.42
2023-07-24T19:05:21.883Z,38.26
2023-07-24T19:20:30.720Z,38.45
2023-07-24T19:35:32.862Z,39.74
2023-07-24T19:50:35.162Z,39.43
2023-07-24T20:05:36.971Z,39.74
2023-07-24T20:20:39.060Z,40.69
2023-07-24T20:35:41.635Z,41.58
2023-07-24T20:50:44.891Z,41.87
2023-07-24T21:05:46.785Z,42.97
2023-07-24T21:20:48.667Z,44.43
2023-07-24T21:36:00.692Z,44.36
2023-07-24T21:51:02.737Z,44.78
2023-07-24T22:06:07.394Z,45.50
2023-07-24T22:21:09.505Z,45.81
2023-07-24T22:36:11.375Z,45.89
2023-07-24T22:51:13.183Z,47.04
2023-07-24T23:06:14.909Z,46.55
2023-07-24T23:21:16.786Z,47.33
2023-07-24T23:36:18.679Z,48.05
2023-07-24T23:51:21.657Z,48.40
